Time;durP1;ratioP1;P1;durP2;ratioP2;P2;SDS_P1;SDS_P2;PMS_P1;PMS_P2;Temp;Humidity;BMP_temperature;BMP_pressure;BME280_temperature;BME280_humidity;BME280_pressure;Samples;Min_cycle;Max_cycle;Signal;HPM_P1;HPM_P2
2020/12/31 00:01:28;;;;;;;19.48;9.50;;;;;;;8.52;85.88;100060.34;1786850;80;21189;-74
2020/12/31 00:03:56;;;;;;;18.48;9.53;;;;;;;8.56;85.93;100062.80;1775143;80;21173;-72
2020/12/31 00:06:25;;;;;;;20.05;10.05;;;;;;;8.59;85.93;100063.61;1762919;80;21204;-73
2020/12/31 00:08:52;;;;;;;16.80;9.63;;;;;;;8.59;85.93;100048.97;1752711;79;21529;-71
2020/12/31 00:11:23;;;;;;;18.55;10.43;;;;;;;8.57;85.95;100051.08;1781080;78;21195;-71
2020/12/31 00:13:51;;;;;;;19.50;10.10;;;;;;;8.57;86.00;100050.28;1767451;80;21160;-72
2020/12/31 00:16:19;;;;;;;20.55;10.28;;;;;;;8.56;86.02;100051.34;1767872;80;21661;-71
2020/12/31 00:18:46;;;;;;;17.95;9.95;;;;;;;8.54;86.09;100054.25;1772749;79;21179;-72
2020/12/31 00:21:14;;;;;;;18.02;9.15;;;;;;;8.53;86.13;100056.64;1784420;79;21796;-73
2020/12/31 00:23:42;;;;;;;20.12;9.40;;;;;;;8.54;86.21;100059.58;1788806;79;21216;-74
2020/12/31 00:26:10;;;;;;;18.98;9.75;;;;;;;8.52;86.24;100067.00;1781285;79;21171;-72
2020/12/31 00:28:38;;;;;;;17.25;9.93;;;;;;;8.52;86.32;100066.20;1795237;78;21211;-73
2020/12/31 00:31:06;;;;;;;18.60;9.55;;;;;;;8.50;86.37;100065.14;1813160;78;21189;-73
2020/12/31 00:33:33;;;;;;;19.30;9.20;;;;;;;8.49;86.34;100065.38;1757856;80;21370;-73
2020/12/31 00:36:02;;;;;;;20.88;10.10;;;;;;;8.49;86.35;100066.71;1783094;78;21191;-72
2020/12/31 00:38:29;;;;;;;20.23;10.63;;;;;;;8.45;86.28;100061.89;1793722;78;21212;-70
2020/12/31 00:40:59;;;;;;;20.90;9.60;;;;;;;8.43;86.23;100059.23;1810024;78;21231;-69
2020/12/31 00:43:27;;;;;;;19.98;9.08;;;;;;;8.39;86.14;100055.45;1803516;79;22182;-73
2020/12/31 00:45:54;;;;;;;16.42;9.93;;;;;;;8.33;86.11;100052.48;1813603;78;21531;-70
2020/12/31 00:48:22;;;;;;;18.52;10.48;;;;;;;8.27;86.22;100050.83;1790379;79;21193;-71
2020/12/31 00:50:50;;;;;;;23.18;10.55;;;;;;;8.26;86.34;100053.19;1782713;80;21216;-72
2020/12/31 00:53:18;;;;;;;18.23;9.83;;;;;;;8.20;86.49;100053.17;1778775;80;21196;-72
2020/12/31 00:55:46;;;;;;;19.90;9.45;;;;;;;8.20;86.60;100057.16;1774890;80;21183;-71
2020/12/31 00:58:14;;;;;;;19.00;10.23;;;;;;;8.20;86.72;100051.04;1769869;78;22854;-71
2020/12/31 01:00:41;;;;;;;20.82;11.15;;;;;;;8.25;86.84;100054.25;1756292;80;21218;-71
2020/12/31 01:03:09;;;;;;;20.27;10.38;;;;;;;8.28;86.95;100052.42;1772278;80;21522;-70
2020/12/31 01:05:37;;;;;;;19.27;10.30;;;;;;;8.31;87.02;100054.05;1813618;78;21210;-71
2020/12/31 01:08:04;;;;;;;21.15;10.88;;;;;;;8.35;87.06;100053.80;1772978;80;21223;-70
2020/12/31 01:10:32;;;;;;;24.02;12.33;;;;;;;8.41;87.10;100056.02;1781711;78;21363;-72
2020/12/31 01:13:00;;;;;;;21.25;11.57;;;;;;;8.43;87.15;100055.24;1767918;79;21192;-71
2020/12/31 01:15:28;;;;;;;24.30;10.70;;;;;;;8.43;87.13;100052.58;1796846;79;21188;-71
2020/12/31 01:17:59;;;;;;;26.68;11.63;;;;;;;8.48;87.10;100055.80;1789046;79;21138;-71
2020/12/31 01:20:26;;;;;;;30.92;12.25;;;;;;;8.51;87.05;100063.27;1779848;78;21174;-71
2020/12/31 01:22:54;;;;;;;26.50;12.20;;;;;;;8.54;87.07;100060.11;1805594;78;22191;-71
2020/12/31 01:25:22;;;;;;;25.43;11.93;;;;;;;8.57;87.08;100056.41;1817996;78;21121;-72
2020/12/31 01:27:50;;;;;;;23.32;10.85;;;;;;;8.60;87.06;100061.22;1819517;78;21112;-72
2020/12/31 01:30:17;;;;;;;24.85;11.60;;;;;;;8.64;87.03;100057.52;1800764;78;21132;-72
2020/12/31 01:32:45;;;;;;;31.93;13.55;;;;;;;8.68;86.99;100063.92;1780293;78;21184;-72
2020/12/31 01:35:13;;;;;;;29.27;13.40;;;;;;;8.69;86.90;100062.35;1811429;78;21435;-72
2020/12/31 01:37:41;;;;;;;23.18;11.10;;;;;;;8.70;86.85;100065.81;1785761;78;21639;-72
2020/12/31 01:40:09;;;;;;;25.97;11.70;;;;;;;8.73;86.78;100057.31;1768086;80;21190;-71
2020/12/31 01:42:43;;;;;;;26.45;12.07;;;;;;;8.74;86.70;100058.11;1783378;79;21721;-71
2020/12/31 01:45:13;;;;;;;29.55;13.30;;;;;;;8.76;86.67;100054.67;1784379;80;21132;-72
2020/12/31 01:47:40;;;;;;;26.90;12.20;;;;;;;8.77;86.62;100059.73;1785416;80;22344;-73
2020/12/31 01:50:09;;;;;;;22.42;11.55;;;;;;;8.80;86.56;100057.09;1754809;80;21167;-72
2020/12/31 01:52:36;;;;;;;28.67;13.13;;;;;;;8.82;86.48;100051.78;1780284;80;21585;-72
2020/12/31 01:55:05;;;;;;;27.02;12.88;;;;;;;8.82;86.42;100052.31;1780468;80;21784;-72
2020/12/31 01:57:33;;;;;;;34.45;13.48;;;;;;;8.81;86.35;100056.81;1783404;79;21158;-72
2020/12/31 02:00:01;;;;;;;23.00;11.55;;;;;;;8.79;86.33;100055.49;1738145;80;21812;-71
2020/12/31 02:02:29;;;;;;;25.70;12.65;;;;;;;8.80;86.27;100055.22;1781137;79;21184;-71
2020/12/31 02:04:57;;;;;;;26.00;13.78;;;;;;;8.81;86.21;100052.02;1791933;79;21241;-73
2020/12/31 02:07:24;;;;;;;27.25;13.45;;;;;;;8.81;86.18;100048.83;1792795;79;21252;-72
2020/12/31 02:09:52;;;;;;;28.80;12.07;;;;;;;8.78;86.13;100048.01;1787709;79;21215;-72
2020/12/31 02:12:20;;;;;;;25.35;12.50;;;;;;;8.78;86.08;100049.88;1770382;79;21212;-72
2020/12/31 02:14:52;;;;;;;27.42;13.48;;;;;;;8.79;86.07;100050.17;1794157;79;21211;-74
2020/12/31 02:17:21;;;;;;;27.40;13.98;;;;;;;8.76;86.02;100043.48;1782976;79;21195;-71
2020/12/31 02:19:49;;;;;;;31.33;14.18;;;;;;;8.76;86.03;100042.69;1777584;79;21257;-72
2020/12/31 02:22:17;;;;;;;27.40;12.85;;;;;;;8.75;85.98;100040.53;1788977;79;21572;-72
2020/12/31 02:24:45;;;;;;;25.10;12.65;;;;;;;8.73;85.90;100036.55;1786407;79;22291;-71
2020/12/31 02:27:13;;;;;;;31.97;13.98;;;;;;;8.72;85.89;100033.09;1763987;79;21181;-70
2020/12/31 02:29:40;;;;;;;34.00;15.00;;;;;;;8.67;85.92;100033.84;1787514;79;21157;-72
2020/12/31 02:32:09;;;;;;;33.53;14.75;;;;;;;8.64;86.04;100027.69;1789819;79;21191;-70
2020/12/31 02:34:37;;;;;;;28.40;15.00;;;;;;;8.60;86.16;100027.94;1772011;79;21179;-72
2020/12/31 02:37:05;;;;;;;32.78;15.00;;;;;;;8.63;86.30;100028.77;1781631;79;21667;-70
2020/12/31 02:39:32;;;;;;;36.30;16.67;;;;;;;8.66;86.40;100026.13;1795329;78;21129;-71
2020/12/31 02:42:00;;;;;;;32.13;15.63;;;;;;;8.67;86.49;100020.53;1778771;79;21186;-70
2020/12/31 02:44:27;;;;;;;31.23;15.65;;;;;;;8.67;86.56;100017.86;1784289;79;21148;-71
2020/12/31 02:46:55;;;;;;;33.60;15.10;;;;;;;8.68;86.69;100014.13;1792010;78;21665;-71
2020/12/31 02:49:23;;;;;;;31.70;16.70;;;;;;;8.71;86.76;100020.02;1792725;79;21837;-70
2020/12/31 02:51:50;;;;;;;37.23;16.70;;;;;;;8.71;86.84;100023.47;1784533;79;21191;-72
2020/12/31 02:54:18;;;;;;;32.38;15.55;;;;;;;8.69;86.89;100017.09;1792621;79;21630;-73
2020/12/31 02:56:46;;;;;;;29.37;15.03;;;;;;;8.69;86.95;100018.42;1790810;78;21167;-72
2020/12/31 02:59:14;;;;;;;33.75;16.00;;;;;;;8.67;87.02;100009.08;1796154;79;21995;-70
2020/12/31 03:01:41;;;;;;;30.70;16.75;;;;;;;8.67;87.13;100011.20;1785524;79;21397;-71
2020/12/31 03:04:09;;;;;;;32.38;15.25;;;;;;;8.71;87.24;100008.03;1777257;79;21599;-72
2020/12/31 03:06:37;;;;;;;32.28;15.30;;;;;;;8.71;87.25;100010.70;1804093;78;21175;-72
2020/12/31 03:09:05;;;;;;;32.28;15.72;;;;;;;8.73;87.25;100005.92;1781995;78;21224;-71
2020/12/31 03:11:33;;;;;;;32.60;16.02;;;;;;;8.73;87.33;100004.06;1799547;78;21196;-71
2020/12/31 03:14:00;;;;;;;37.48;15.98;;;;;;;8.75;87.36;100003.79;1766264;80;21384;-71
2020/12/31 03:16:28;;;;;;;30.80;15.03;;;;;;;8.75;87.37;100001.12;1653156;80;10000204;-71
2020/12/31 03:18:55;;;;;;;31.48;15.18;;;;;;;8.74;87.31;99995.53;1789883;80;21187;-71
2020/12/31 03:21:23;;;;;;;32.90;15.90;;;;;;;8.72;87.31;99999.80;1782221;78;21166;-71
2020/12/31 03:23:51;;;;;;;32.88;15.98;;;;;;;8.71;87.32;99996.84;1771177;80;21329;-73
2020/12/31 03:26:19;;;;;;;25.00;14.33;;;;;;;8.69;87.32;99999.78;1794587;78;21212;-73
2020/12/31 03:28:47;;;;;;;29.80;14.75;;;;;;;8.69;87.31;99998.45;1779266;78;21394;-72
2020/12/31 03:31:15;;;;;;;28.17;15.23;;;;;;;8.68;87.31;99987.51;1777387;80;21211;-72
2020/12/31 03:33:43;;;;;;;27.07;15.28;;;;;;;8.68;87.32;99984.05;1802998;78;21148;-72
2020/12/31 03:36:11;;;;;;;27.05;13.85;;;;;;;8.68;87.30;99983.52;1802531;78;21379;-72
2020/12/31 03:38:38;;;;;;;26.10;13.63;;;;;;;8.65;87.29;99985.89;1812918;78;21639;-72
2020/12/31 03:41:06;;;;;;;25.95;14.90;;;;;;;8.64;87.25;99987.76;1770061;78;21803;-73
2020/12/31 03:43:34;;;;;;;29.25;14.55;;;;;;;8.62;87.23;99985.91;1775450;80;21382;-73
2020/12/31 03:46:02;;;;;;;28.67;15.28;;;;;;;8.62;87.20;99981.08;1771850;80;21225;-72
2020/12/31 03:48:30;;;;;;;28.67;14.75;;;;;;;8.59;87.13;99977.10;1812928;78;21801;-72
2020/12/31 03:50:57;;;;;;;28.62;14.98;;;;;;;8.56;87.02;99980.27;1769703;80;21678;-72
2020/12/31 03:53:25;;;;;;;28.02;14.75;;;;;;;8.54;87.02;99979.72;1771386;80;21205;-72
2020/12/31 03:55:53;;;;;;;29.75;15.78;;;;;;;8.54;86.98;99977.59;1751377;81;21144;-72
2020/12/31 03:58:21;;;;;;;26.60;13.90;;;;;;;8.51;86.92;99974.91;1758807;80;21660;-71
2020/12/31 04:00:48;;;;;;;21.73;12.85;;;;;;;8.50;86.88;99974.64;1810157;78;21198;-72
2020/12/31 04:03:17;;;;;;;26.75;13.68;;;;;;;8.49;86.86;99975.72;1804048;78;21199;-71
2020/12/31 04:05:45;;;;;;;23.50;14.38;;;;;;;8.48;86.81;99976.75;1787192;78;21225;-72
2020/12/31 04:08:12;;;;;;;27.48;13.43;;;;;;;8.47;86.75;99980.48;1774216;80;21198;-72
2020/12/31 04:10:40;;;;;;;26.23;13.50;;;;;;;8.43;86.70;99980.19;1778583;80;21168;-72
2020/12/31 04:13:09;;;;;;;25.68;14.03;;;;;;;8.44;86.66;99970.34;1780952;80;21324;-72
2020/12/31 04:15:37;;;;;;;23.00;12.35;;;;;;;8.43;86.57;99981.52;1777035;80;21212;-72
2020/12/31 04:18:06;;;;;;;27.37;12.88;;;;;;;8.42;86.51;99987.09;1807839;78;21144;-71
2020/12/31 04:20:34;;;;;;;24.77;13.65;;;;;;;8.38;86.48;99986.00;1756992;81;21266;-71
2020/12/31 04:23:02;;;;;;;25.90;12.58;;;;;;;8.37;86.42;99991.83;1787630;79;21151;-71
2020/12/31 04:25:29;;;;;;;24.98;12.23;;;;;;;8.40;86.40;99994.55;1791920;79;21363;-71
2020/12/31 04:27:57;;;;;;;20.90;12.23;;;;;;;8.42;86.32;99997.73;1789167;79;21199;-72
2020/12/31 04:30:25;;;;;;;25.68;13.20;;;;;;;8.42;86.29;100005.72;1789789;78;21707;-71
2020/12/31 04:32:53;;;;;;;20.95;11.08;;;;;;;8.44;86.24;100003.08;1788796;79;21152;-71
2020/12/31 04:35:20;;;;;;;24.37;11.73;;;;;;;8.48;86.16;100003.37;1780903;79;21169;-72
2020/12/31 04:37:48;;;;;;;22.67;11.97;;;;;;;8.51;86.06;100009.51;1776385;79;21308;-72
2020/12/31 04:40:15;;;;;;;18.10;11.55;;;;;;;8.51;85.87;100005.52;1794980;79;21583;-72
2020/12/31 04:42:43;;;;;;;17.92;10.08;;;;;;;8.49;85.77;100002.33;1788906;79;21180;-72
2020/12/31 04:45:11;;;;;;;19.87;9.75;;;;;;;8.51;85.68;100012.70;1785260;79;21168;-72
2020/12/31 04:47:46;;;;;;;17.42;9.93;;;;;;;8.52;85.59;100012.97;1792444;78;21159;-72
2020/12/31 04:50:14;;;;;;;20.95;11.22;;;;;;;8.53;85.49;100018.05;1772938;80;21384;-71
2020/12/31 04:52:42;;;;;;;18.82;10.90;;;;;;;8.53;85.38;100022.05;1766114;79;21204;-72
2020/12/31 04:55:09;;;;;;;19.02;9.90;;;;;;;8.55;85.18;100024.44;1759992;80;21179;-72
2020/12/31 04:57:37;;;;;;;15.00;8.58;;;;;;;8.54;85.03;100027.63;1762197;80;21211;-72
2020/12/31 05:00:07;;;;;;;18.40;10.13;;;;;;;8.53;84.95;100027.91;1778618;80;21177;-72
2020/12/31 05:02:36;;;;;;;17.12;10.28;;;;;;;8.54;84.91;100024.17;1802011;78;21663;-72
2020/12/31 05:05:04;;;;;;;14.18;9.40;;;;;;;8.54;84.84;100024.97;1750749;80;21462;-72
2020/12/31 05:07:32;;;;;;;19.80;10.98;;;;;;;8.54;84.76;100035.62;1751962;78;21185;-72
2020/12/31 05:10:11;;;;;;;18.52;10.65;;;;;;;8.56;84.70;100040.16;1776445;78;21186;-72
2020/12/31 05:12:39;;;;;;;18.20;10.45;;;;;;;8.57;84.58;100040.43;1793914;78;21156;-72
2020/12/31 05:15:07;;;;;;;18.62;10.90;;;;;;;8.58;84.50;100042.56;1787748;78;21815;-72
2020/12/31 05:17:34;;;;;;;16.77;11.18;;;;;;;8.59;84.45;100041.52;1768621;80;21191;-72
2020/12/31 05:20:14;;;;;;;20.80;10.35;;;;;;;8.59;84.39;100040.19;1781404;80;21136;-71
2020/12/31 05:22:42;;;;;;;18.55;9.78;;;;;;;8.61;84.32;100040.19;1787313;80;21118;-73
2020/12/31 05:25:09;;;;;;;19.30;10.05;;;;;;;8.64;84.26;100046.33;1806856;78;21145;-71
2020/12/31 05:27:37;;;;;;;18.80;10.10;;;;;;;8.65;84.19;100048.45;1767869;80;21379;-72
2020/12/31 05:30:07;;;;;;;16.07;10.75;;;;;;;8.63;84.13;100050.06;1792693;79;21132;-71
2020/12/31 05:32:40;;;;;;;19.00;10.27;;;;;;;8.62;84.10;100055.12;1792266;79;21220;-72
2020/12/31 05:35:18;;;;;;;18.77;10.13;;;;;;;8.62;84.06;100055.12;1790551;78;21441;-71
2020/12/31 05:37:46;;;;;;;16.50;9.98;;;;;;;8.65;84.06;100056.45;1787465;78;21245;-72
2020/12/31 05:40:14;;;;;;;18.80;11.18;;;;;;;8.68;84.05;100051.94;1781957;80;21199;-72
2020/12/31 05:42:43;;;;;;;19.15;11.45;;;;;;;8.71;84.00;100062.61;1787959;80;21141;-72
2020/12/31 05:45:16;;;;;;;17.95;9.93;;;;;;;8.72;83.91;100058.88;1767565;80;21649;-72
2020/12/31 05:47:53;;;;;;;16.45;9.88;;;;;;;8.73;83.88;100059.18;1787958;78;21704;-72
2020/12/31 05:50:27;;;;;;;20.50;10.70;;;;;;;8.75;83.82;100063.70;1756597;80;21200;-72
2020/12/31 05:52:55;;;;;;;20.97;11.93;;;;;;;8.77;83.77;100064.25;1765927;81;21874;-72
2020/12/31 05:55:25;;;;;;;19.23;11.07;;;;;;;8.80;83.73;100067.73;1782523;79;21939;-72
2020/12/31 05:57:55;;;;;;;22.73;11.70;;;;;;;8.81;83.68;100068.00;1790630;79;21437;-72
2020/12/31 06:00:25;;;;;;;16.70;10.63;;;;;;;8.81;83.59;100069.33;1785138;79;21175;-72
2020/12/31 06:02:56;;;;;;;20.62;11.53;;;;;;;8.80;83.50;100063.21;1792598;79;21283;-71
2020/12/31 06:05:24;;;;;;;20.45;11.43;;;;;;;8.81;83.44;100070.13;1782824;78;22698;-71
2020/12/31 06:07:54;;;;;;;20.80;12.63;;;;;;;8.82;83.41;100065.63;1772262;79;21612;-72
2020/12/31 06:10:28;;;;;;;24.05;13.55;;;;;;;8.83;83.33;100068.56;1784825;79;23586;-72
2020/12/31 06:12:59;;;;;;;23.75;11.40;;;;;;;8.81;83.23;100068.00;1781718;78;21442;-73
2020/12/31 06:15:37;;;;;;;20.45;11.90;;;;;;;8.81;83.17;100069.33;1777311;79;21179;-72
2020/12/31 06:18:06;;;;;;;20.62;11.90;;;;;;;8.76;83.12;100067.45;1790336;79;21393;-72
2020/12/31 06:20:38;;;;;;;23.60;12.23;;;;;;;8.72;83.18;100070.36;1791879;78;21183;-72
2020/12/31 06:23:11;;;;;;;20.97;12.07;;;;;;;8.71;83.23;100071.40;1790869;79;21215;-72
2020/12/31 06:25:46;;;;;;;22.33;11.43;;;;;;;8.71;83.24;100071.40;1778825;79;21482;-72
2020/12/31 06:28:21;;;;;;;24.35;12.58;;;;;;;8.73;83.25;100076.48;1784735;79;21354;-71
2020/12/31 06:30:53;;;;;;;19.73;12.05;;;;;;;8.72;83.27;100066.88;1800509;78;21472;-71
2020/12/31 06:33:46;;;;;;;25.08;13.20;;;;;;;8.72;83.30;100065.54;1818488;78;21636;-71
2020/12/31 06:36:14;;;;;;;21.62;11.30;;;;;;;8.72;83.33;100068.20;1797195;78;21175;-71
2020/12/31 06:41:40;;;;;;;20.92;12.65;;;;;;;8.77;83.44;100062.39;1755100;79;28494;-71
2020/12/31 06:44:16;;;;;;;23.20;13.00;;;;;;;8.79;83.44;100074.13;1726944;81;28173;-71
2020/12/31 06:46:48;;;;;;;23.10;11.40;;;;;;;8.92;83.33;100079.00;1734856;82;21382;-71
2020/12/31 06:49:16;;;;;;;22.50;12.10;;;;;;;8.94;83.21;100090.19;1753809;80;21486;-70
2020/12/31 06:51:44;;;;;;;23.17;13.27;;;;;;;8.94;83.23;100094.18;1755232;80;21884;-71
2020/12/31 06:54:12;;;;;;;22.20;13.00;;;;;;;8.96;83.16;100096.07;1750746;80;21519;-71
2020/12/31 06:56:49;;;;;;;20.90;11.63;;;;;;;8.96;83.10;100093.41;1748657;81;21449;-71
2020/12/31 06:59:40;;;;;;;24.87;11.37;;;;;;;8.96;83.03;100093.41;1749425;81;22422;-73
2020/12/31 07:02:16;;;;;;;19.47;12.13;;;;;;;8.96;83.01;100091.28;1746321;81;21876;-71
2020/12/31 07:04:44;;;;;;;26.43;13.23;;;;;;;8.90;83.07;100088.56;1740977;81;21955;-71
2020/12/31 07:07:28;;;;;;;22.83;11.23;;;;;;;8.89;83.19;100086.17;1746414;81;21898;-71
2020/12/31 07:09:57;;;;;;;21.90;11.48;;;;;;;8.88;83.26;100089.38;1742352;81;21819;-70
2020/12/31 07:12:41;;;;;;;20.20;12.00;;;;;;;8.87;83.30;100097.60;1747296;81;22260;-71
2020/12/31 07:15:09;;;;;;;27.33;13.30;;;;;;;8.89;83.36;100099.49;1757687;79;21252;-71
2020/12/31 07:17:45;;;;;;;22.97;13.33;;;;;;;8.83;83.27;100100.52;1748406;81;21308;-72
2020/12/31 07:20:15;;;;;;;23.93;11.37;;;;;;;8.80;83.33;100103.69;1768018;81;21807;-71
2020/12/31 07:22:43;;;;;;;20.77;12.23;;;;;;;8.78;83.34;100103.12;1741747;81;21588;-72
2020/12/31 07:25:17;;;;;;;23.50;12.77;;;;;;;8.80;83.43;100105.02;1744769;81;21482;-72
2020/12/31 07:27:47;;;;;;;23.97;13.07;;;;;;;8.82;83.46;100105.05;1750994;81;21484;-72
2020/12/31 07:30:18;;;;;;;27.22;13.30;;;;;;;8.82;83.37;100104.25;1756140;81;21388;-72
2020/12/31 07:33:06;;;;;;;25.95;12.43;;;;;;;8.80;83.35;100106.35;1752179;81;21212;-72
2020/12/31 07:35:43;;;;;;;24.97;12.60;;;;;;;8.78;83.31;100103.12;1747402;81;21151;-72
2020/12/31 07:38:14;;;;;;;22.37;13.43;;;;;;;8.77;83.33;100102.86;1752955;80;21513;-72
2020/12/31 07:40:53;;;;;;;29.40;14.23;;;;;;;8.78;83.41;100107.92;1724061;82;21755;-72
2020/12/31 08:43:44;;;;;;;30.90;16.23;;;;;;;9.03;83.61;100127.27;1889399;74;22792;-73
2020/12/31 08:46:21;;;;;;;34.73;15.77;;;;;;;8.98;83.66;100129.89;1853678;75;21085;-72
2020/12/31 08:48:53;;;;;;;27.45;14.00;;;;;;;8.97;83.73;100126.97;1842440;75;21383;-74
2020/12/31 08:51:21;;;;;;;28.92;15.08;;;;;;;9.01;83.81;100128.05;1837832;76;21179;-73
2020/12/31 08:53:59;;;;;;;29.93;15.20;;;;;;;9.01;83.84;100125.92;1822993;77;21190;-74
2020/12/31 08:56:29;;;;;;;33.10;15.50;;;;;;;8.99;83.89;100126.19;1842560;77;21474;-73
2020/12/31 08:59:11;;;;;;;33.40;16.30;;;;;;;8.97;83.97;100129.63;1766608;80;21692;-72
2020/12/31 09:01:42;;;;;;;30.37;16.65;;;;;;;8.99;84.06;100132.85;1504088;80;10000412;-72
2020/12/31 09:04:18;;;;;;;35.35;16.95;;;;;;;9.01;84.18;100122.72;1747816;81;21201;-73
2020/12/31 09:06:48;;;;;;;26.10;14.27;;;;;;;9.02;84.23;100123.02;1726394;82;21450;-74
2020/12/31 09:09:26;;;;;;;28.40;14.37;;;;;;;9.04;84.28;100129.41;1745809;80;21470;-74
2020/12/31 09:12:06;;;;;;;29.53;14.50;;;;;;;9.02;84.33;100132.34;1746267;80;21478;-71
2020/12/31 09:14:38;;;;;;;28.00;15.37;;;;;;;9.03;84.40;100121.95;1727615;81;21469;-71
2020/12/31 09:17:24;;;;;;;27.53;15.07;;;;;;;9.05;84.54;100129.67;1715514;80;21543;-72
2020/12/31 09:19:54;;;;;;;29.37;14.80;;;;;;;9.07;84.61;100130.23;1797186;77;21389;-73
2020/12/31 09:22:24;;;;;;;29.40;13.93;;;;;;;9.09;84.67;100130.78;1804567;77;21364;-73
2020/12/31 09:24:53;;;;;;;29.03;14.80;;;;;;;9.12;84.69;100127.61;1806241;79;21397;-73
2020/12/31 09:27:24;;;;;;;26.87;14.27;;;;;;;9.14;84.70;100120.14;1806415;77;21441;-73
2020/12/31 09:29:59;;;;;;;30.80;14.95;;;;;;;9.14;84.73;100123.60;1793730;77;22067;-74
2020/12/31 09:32:30;;;;;;;30.10;14.73;;;;;;;9.14;84.76;100120.14;1804030;77;21972;-74
2020/12/31 09:35:02;;;;;;;31.90;13.50;;;;;;;9.12;84.75;100120.95;1769105;80;21377;-73
2020/12/31 09:37:29;;;;;;;29.30;14.30;;;;;;;9.10;84.76;100117.19;1764151;79;21380;-73
2020/12/31 09:39:57;;;;;;;26.37;14.13;;;;;;;9.11;84.77;100113.99;1771840;79;21970;-72
2020/12/31 09:42:25;;;;;;;26.07;14.23;;;;;;;9.08;84.75;100115.33;1764252;79;21456;-75
2020/12/31 09:44:53;;;;;;;24.37;13.20;;;;;;;9.07;84.82;100112.38;1764152;80;21515;-76
2020/12/31 09:47:21;;;;;;;25.77;13.93;;;;;;;9.07;84.84;100111.05;1774910;79;21913;-76
2020/12/31 09:49:48;;;;;;;26.50;14.37;;;;;;;9.07;84.90;100109.71;1760325;80;21372;-76
2020/12/31 09:52:16;;;;;;;29.23;14.90;;;;;;;9.09;84.98;100110.27;1790300;79;21401;-76
2020/12/31 09:54:44;;;;;;;25.13;14.30;;;;;;;9.08;85.00;100111.84;1774207;80;21684;-76
2020/12/31 09:57:11;;;;;;;27.00;14.13;;;;;;;9.08;84.99;100103.84;1764500;80;21434;-75
2020/12/31 09:59:39;;;;;;;26.20;13.93;;;;;;;9.06;85.00;100102.79;1790511;79;21244;-75
2020/12/31 10:02:07;;;;;;;28.67;14.20;;;;;;;9.08;85.02;100104.67;1773007;80;21439;-75
2020/12/31 10:04:34;;;;;;;24.70;13.63;;;;;;;9.08;85.03;100108.67;1759733;80;21428;-75
2020/12/31 10:07:02;;;;;;;23.37;12.57;;;;;;;9.08;85.04;100104.67;1793406;79;21929;-75
2020/12/31 10:09:29;;;;;;;21.53;11.60;;;;;;;9.07;85.04;100099.59;1785229;79;21914;-75
2020/12/31 10:11:57;;;;;;;22.37;12.37;;;;;;;9.07;85.03;100101.72;1767934;80;21390;-75
2020/12/31 10:14:25;;;;;;;25.03;13.17;;;;;;;9.05;85.09;100101.70;1770428;80;21917;-75
2020/12/31 10:16:52;;;;;;;21.30;12.23;;;;;;;9.02;85.11;100103.57;1753176;80;22320;-76
2020/12/31 10:19:20;;;;;;;23.55;11.63;;;;;;;9.00;85.11;100101.15;1757497;80;21423;-75
2020/12/31 10:21:48;;;;;;;23.87;11.67;;;;;;;9.01;85.16;100098.75;1791293;79;21381;-76
2020/12/31 10:24:16;;;;;;;20.87;12.50;;;;;;;9.02;85.17;100096.38;1792482;79;21463;-74
2020/12/31 10:26:44;;;;;;;20.10;12.87;;;;;;;8.98;85.15;100097.13;1743276;80;21394;-75
2020/12/31 10:29:16;;;;;;;18.25;11.15;;;;;;;8.92;85.19;100084.34;1754325;80;21362;-75
2020/12/31 10:31:52;;;;;;;22.53;12.10;;;;;;;8.87;85.24;100084.28;1761255;80;21196;-75
2020/12/31 10:34:20;;;;;;;21.57;12.13;;;;;;;8.85;85.30;100078.41;1791656;79;21364;-74
2020/12/31 10:36:54;;;;;;;22.83;13.60;;;;;;;8.82;85.34;100077.61;1795146;79;21156;-75
2020/12/31 10:39:22;;;;;;;23.43;11.87;;;;;;;8.79;85.45;100066.94;1762082;80;21409;-76
2020/12/31 10:41:50;;;;;;;20.37;12.60;;;;;;;8.83;85.54;100059.23;1764270;80;21363;-75
2020/12/31 10:44:19;;;;;;;21.97;11.97;;;;;;;8.86;85.59;100058.19;1747877;80;21869;-75
2020/12/31 10:46:47;;;;;;;22.47;13.67;;;;;;;8.89;85.58;100064.88;1763450;80;21437;-74
2020/12/31 10:49:14;;;;;;;21.77;12.58;;;;;;;8.85;85.60;100059.77;1767638;79;21729;-75
2020/12/31 10:51:42;;;;;;;21.90;11.80;;;;;;;8.84;85.67;100055.50;1773113;79;21198;-76
2020/12/31 10:54:12;;;;;;;23.37;11.93;;;;;;;8.85;85.72;100062.42;1781376;80;21875;-75
2020/12/31 10:56:39;;;;;;;25.92;13.88;;;;;;;8.84;85.71;100058.17;1767912;80;21416;-74
2020/12/31 10:59:07;;;;;;;24.05;13.38;;;;;;;8.84;85.74;100062.16;1762281;80;21219;-75
2020/12/31 11:01:35;;;;;;;24.90;13.30;;;;;;;8.84;85.73;100068.28;1763990;80;21840;-75
2020/12/31 11:04:03;;;;;;;27.73;13.60;;;;;;;8.82;85.76;100062.44;1767902;80;21173;-76
2020/12/31 11:06:30;;;;;;;24.87;13.53;;;;;;;8.79;85.71;100064.28;1767952;80;21373;-75
2020/12/31 11:08:59;;;;;;;26.40;13.60;;;;;;;8.80;85.79;100065.08;1779184;80;21395;-75
2020/12/31 11:11:33;;;;;;;24.23;13.88;;;;;;;8.81;85.79;100057.34;1775859;80;21397;-76
2020/12/31 11:14:02;;;;;;;25.17;13.03;;;;;;;8.80;85.80;100055.22;1774165;80;21187;-75
2020/12/31 11:16:29;;;;;;;24.17;12.47;;;;;;;8.83;85.80;100057.91;1756841;79;21528;-76
2020/12/31 11:18:59;;;;;;;24.27;12.47;;;;;;;8.82;85.80;100055.78;1756919;80;22411;-75
2020/12/31 11:21:27;;;;;;;21.90;12.13;;;;;;;8.81;85.79;100056.02;1777750;79;21535;-75
2020/12/31 11:23:54;;;;;;;21.60;12.43;;;;;;;8.80;85.80;100058.42;1774427;80;21308;-76
2020/12/31 11:26:23;;;;;;;20.87;11.57;;;;;;;8.71;85.77;100055.42;1779738;79;21391;-75
2020/12/31 11:28:50;;;;;;;22.53;11.90;;;;;;;8.66;85.88;100052.74;1776062;80;21485;-74
2020/12/31 11:31:27;;;;;;;21.23;12.13;;;;;;;8.66;85.97;100050.88;1771055;79;21486;-75
2020/12/31 11:33:55;;;;;;;19.75;11.60;;;;;;;8.65;86.04;100041.30;1781267;80;22082;-75
2020/12/31 11:36:24;;;;;;;15.53;9.50;;;;;;;8.59;86.14;100042.31;1775610;80;21374;-75
2020/12/31 11:38:53;;;;;;;19.90;11.25;;;;;;;8.59;86.28;100047.64;1755235;80;21876;-74
2020/12/31 11:41:20;;;;;;;19.67;10.87;;;;;;;8.56;86.42;100040.16;1779305;79;22252;-75
2020/12/31 11:43:49;;;;;;;18.67;10.53;;;;;;;8.56;86.58;100034.84;1757928;80;21446;-77
2020/12/31 11:46:17;;;;;;;16.33;8.77;;;;;;;8.56;86.66;100037.50;1764219;80;21373;-75
2020/12/31 11:48:46;;;;;;;17.57;9.90;;;;;;;8.58;86.71;100039.89;1771548;80;22310;-75
2020/12/31 11:51:14;;;;;;;20.43;11.83;;;;;;;8.50;86.72;100038.52;1770068;80;21921;-75
2020/12/31 11:53:41;;;;;;;18.55;11.10;;;;;;;8.42;86.83;100049.63;1762186;80;21437;-75
2020/12/31 11:56:09;;;;;;;20.50;11.57;;;;;;;8.34;87.01;100048.22;1756289;79;21524;-76
2020/12/31 11:58:37;;;;;;;18.90;10.93;;;;;;;8.34;87.18;100055.41;1773779;80;21571;-76
2020/12/31 12:01:05;;;;;;;19.23;11.30;;;;;;;8.35;87.23;100050.34;1762938;80;21829;-76
2020/12/31 12:03:32;;;;;;;18.75;11.03;;;;;;;8.31;87.30;100049.26;1764752;80;21713;-76
2020/12/31 12:06:00;;;;;;;21.23;12.25;;;;;;;8.26;87.47;100045.20;1759483;80;21675;-76
2020/12/31 12:08:28;;;;;;;20.13;11.73;;;;;;;8.25;87.55;100055.59;1777188;80;21204;-76
2020/12/31 12:10:56;;;;;;;15.97;10.63;;;;;;;8.21;87.66;100044.13;1761561;80;21223;-76
2020/12/31 12:13:25;;;;;;;17.13;9.83;;;;;;;8.23;87.77;100044.68;1771810;79;21395;-76
2020/12/31 12:15:53;;;;;;;19.10;11.22;;;;;;;8.23;87.82;100042.55;1758556;80;21381;-76
2020/12/31 12:18:23;;;;;;;20.68;11.88;;;;;;;8.16;87.87;100041.44;1796377;79;21184;-75
2020/12/31 12:20:50;;;;;;;20.52;11.05;;;;;;;8.16;87.98;100042.77;1769543;80;21172;-76
2020/12/31 12:23:19;;;;;;;23.95;13.32;;;;;;;8.17;88.03;100039.04;1762107;80;21228;-75
2020/12/31 12:25:47;;;;;;;19.75;11.63;;;;;;;8.17;88.09;100044.36;1792947;79;21381;-76
2020/12/31 12:28:14;;;;;;;20.77;11.93;;;;;;;8.13;88.14;100047.26;1789695;79;21192;-75
2020/12/31 12:30:42;;;;;;;20.10;11.08;;;;;;;8.10;88.23;100038.98;1790872;79;21539;-75
2020/12/31 12:33:10;;;;;;;21.50;11.53;;;;;;;8.11;88.33;100041.38;1788311;79;21224;-74